Time;durP1;ratioP1;P1;durP2;ratioP2;P2;SDS_P1;SDS_P2;PMS_P1;PMS_P2;Temp;Humidity;BMP_temperature;BMP_pressure;BME280_temperature;BME280_humidity;BME280_pressure;Samples;Min_cycle;Max_cycle;Signal;HPM_P1;HPM_P2
2022/08/01 00:00:14;;;;;;;10.65;3.90;;;18.10;99.90;;;;;;4952566;28;20177;-83
2022/08/01 00:02:40;;;;;;;10.63;3.53;;;18.10;99.90;;;;;;4967337;28;20074;-83
2022/08/01 00:05:07;;;;;;;10.25;3.95;;;18.10;99.90;;;;;;4967366;28;20050;-83
2022/08/01 00:07:36;;;;;;;12.13;3.50;;;18.10;99.90;;;;;;4951694;28;20050;-83
2022/08/01 00:10:09;;;;;;;10.57;3.58;;;18.10;99.90;;;;;;4948683;28;21269;-83
2022/08/01 00:12:35;;;;;;;9.98;3.45;;;18.10;99.90;;;;;;4953249;28;20038;-83
2022/08/01 00:15:01;;;;;;;8.70;3.63;;;18.10;99.90;;;;;;4935939;28;20053;-83
2022/08/01 00:17:27;;;;;;;8.23;3.45;;;18.10;99.90;;;;;;4969240;28;20055;-83
2022/08/01 00:19:52;;;;;;;8.30;3.20;;;18.10;99.90;;;;;;4950968;28;20050;-83
2022/08/01 00:22:18;;;;;;;9.23;3.30;;;18.10;99.90;;;;;;4952891;28;20193;-84
2022/08/01 00:24:44;;;;;;;8.15;3.60;;;18.10;99.90;;;;;;4937947;28;20049;-83
2022/08/01 00:27:09;;;;;;;7.88;3.58;;;18.10;99.90;;;;;;4951375;28;20082;-84
2022/08/01 00:29:35;;;;;;;10.55;3.55;;;18.10;99.90;;;;;;4934531;28;20152;-84
2022/08/01 00:32:01;;;;;;;8.50;3.13;;;18.00;99.90;;;;;;4933364;28;20054;-82
2022/08/01 00:34:26;;;;;;;7.57;3.03;;;18.00;99.90;;;;;;4936393;28;20049;-83
2022/08/01 00:36:52;;;;;;;7.68;3.00;;;18.00;99.90;;;;;;4951405;28;20098;-83
2022/08/01 00:39:18;;;;;;;10.98;3.33;;;18.00;99.90;;;;;;4951436;28;20278;-83
2022/08/01 00:41:43;;;;;;;10.23;3.42;;;18.00;99.90;;;;;;4951332;28;20054;-83
2022/08/01 00:44:09;;;;;;;7.55;3.28;;;18.00;99.90;;;;;;4952957;28;20042;-84
2022/08/01 00:46:35;;;;;;;8.52;3.22;;;18.00;99.90;;;;;;4967481;28;20049;-85
2022/08/01 00:49:01;;;;;;;8.68;3.35;;;18.00;99.90;;;;;;4919765;28;20039;-84
2022/08/01 00:51:27;;;;;;;7.80;3.15;;;18.00;99.90;;;;;;4935870;28;20137;-84
2022/08/01 00:53:54;;;;;;;8.88;3.20;;;18.00;99.90;;;;;;4952601;28;20043;-83
2022/08/01 00:56:24;;;;;;;8.40;3.38;;;18.00;99.90;;;;;;4967163;28;20042;-84
2022/08/01 00:58:51;;;;;;;8.13;3.40;;;18.00;99.90;;;;;;4950419;28;20050;-84
2022/08/01 01:01:17;;;;;;;10.77;3.53;;;17.90;99.90;;;;;;4952434;28;20480;-84
2022/08/01 01:03:43;;;;;;;8.27;3.00;;;17.90;99.90;;;;;;4927200;28;20035;-83
2022/08/01 01:06:18;;;;;;;7.90;3.20;;;17.90;99.90;;;;;;4939047;28;20133;-83
2022/08/01 01:09:03;;;;;;;9.05;3.10;;;17.90;99.90;;;;;;4966842;28;20039;-83
2022/08/01 01:11:36;;;;;;;10.93;3.20;;;17.90;99.90;;;;;;4950513;28;20046;-84
2022/08/01 01:14:09;;;;;;;7.75;3.05;;;17.90;99.90;;;;;;4961788;28;20034;-84
2022/08/01 01:16:39;;;;;;;8.07;3.30;;;17.90;99.90;;;;;;4966114;28;20053;-84
2022/08/01 01:19:10;;;;;;;9.77;3.17;;;17.90;99.90;;;;;;4967498;28;20043;-83
2022/08/01 01:21:42;;;;;;;10.25;3.10;;;17.90;99.90;;;;;;4967978;28;20042;-84
2022/08/01 01:24:47;;;;;;;12.00;2.97;;;17.90;99.90;;;;;;4947762;28;20047;-84
2022/08/01 01:27:42;;;;;;;6.60;2.25;;;17.80;99.90;;;;;;4948502;28;20130;-83
2022/08/01 01:30:08;;;;;;;7.68;2.50;;;17.80;99.90;;;;;;4941134;28;20042;-84
2022/08/01 01:32:44;;;;;;;7.30;2.08;;;17.80;99.90;;;;;;4934162;28;20039;-84
2022/08/01 01:35:32;;;;;;;13.45;2.65;;;17.70;99.90;;;;;;4967793;28;21076;-84
2022/08/01 01:38:06;;;;;;;9.75;2.30;;;17.70;99.90;;;;;;4951400;28;20126;-84
2022/08/01 01:40:34;;;;;;;7.38;2.17;;;17.60;99.90;;;;;;4968478;28;20616;-84
2022/08/01 01:43:00;;;;;;;6.80;2.10;;;17.60;99.90;;;;;;4952073;28;20641;-84
2022/08/01 01:45:26;;;;;;;8.13;2.10;;;17.60;99.90;;;;;;4965043;28;20039;-84
2022/08/01 01:47:53;;;;;;;6.65;2.10;;;17.60;99.90;;;;;;4969409;28;20042;-83
2022/08/01 01:50:24;;;;;;;7.30;2.05;;;17.60;99.90;;;;;;4950031;28;20279;-84
2022/08/01 01:52:50;;;;;;;7.93;2.20;;;17.60;99.90;;;;;;4966844;28;20503;-84
2022/08/01 01:55:19;;;;;;;8.55;2.15;;;17.50;99.90;;;;;;4953463;28;20034;-83
2022/08/01 01:57:46;;;;;;;8.38;1.90;;;17.50;99.90;;;;;;4971673;28;20050;-84
2022/08/01 02:00:13;;;;;;;6.97;1.98;;;17.50;99.90;;;;;;4937564;28;20039;-85
2022/08/01 02:02:40;;;;;;;7.18;2.00;;;17.40;99.90;;;;;;4968169;28;20121;-84
2022/08/01 02:05:09;;;;;;;8.02;1.98;;;17.40;99.90;;;;;;4939094;28;20574;-84
2022/08/01 02:07:35;;;;;;;6.95;1.90;;;17.40;99.90;;;;;;4971269;28;20082;-84
2022/08/01 02:10:03;;;;;;;7.78;1.70;;;17.40;99.90;;;;;;4955395;28;20134;-84
2022/08/01 02:12:32;;;;;;;9.20;1.90;;;17.40;99.90;;;;;;4936915;28;20411;-84
2022/08/01 02:14:59;;;;;;;8.00;1.75;;;17.40;99.90;;;;;;4956113;28;20122;-84
2022/08/01 02:17:26;;;;;;;7.20;1.80;;;17.30;99.90;;;;;;4940006;28;20035;-84
2022/08/01 02:19:53;;;;;;;8.40;2.03;;;17.40;99.90;;;;;;4938300;28;20448;-84
2022/08/01 02:22:42;;;;;;;8.88;2.10;;;17.40;99.90;;;;;;4939566;28;20400;-83
2022/08/01 02:25:41;;;;;;;9.93;2.15;;;17.40;99.90;;;;;;4969454;28;20038;-84
2022/08/01 02:28:11;;;;;;;9.25;2.00;;;17.40;99.90;;;;;;4953478;28;20491;-85
2022/08/01 02:30:40;;;;;;;6.97;1.90;;;17.40;99.90;;;;;;4953863;28;20045;-84
2022/08/01 02:33:12;;;;;;;9.10;1.80;;;17.40;99.90;;;;;;4953029;28;20047;-85
2022/08/01 02:35:41;;;;;;;8.15;2.38;;;17.40;99.90;;;;;;4954194;28;20094;-84
2022/08/01 02:38:11;;;;;;;8.30;2.10;;;17.40;99.90;;;;;;4956973;28;20042;-84
2022/08/01 02:40:41;;;;;;;9.93;1.88;;;17.40;99.90;;;;;;4966519;28;20053;-84
2022/08/01 02:43:10;;;;;;;8.82;1.90;;;17.30;99.90;;;;;;4956642;28;20050;-85
2022/08/01 02:45:43;;;;;;;7.85;2.00;;;17.30;99.90;;;;;;4951989;28;20118;-85
2022/08/01 02:48:12;;;;;;;;;;;17.30;99.90;;;;;;4954403;28;20592;-85
2022/08/01 02:50:42;;;;;;;9.15;2.20;;;17.30;99.90;;;;;;4969744;28;20135;-85
2022/08/01 02:53:11;;;;;;;10.60;2.35;;;17.30;99.90;;;;;;4968991;28;20034;-85
2022/08/01 02:55:39;;;;;;;11.80;2.72;;;17.30;99.90;;;;;;4951912;28;20046;-84
2022/08/01 02:58:08;;;;;;;11.63;3.00;;;17.30;99.90;;;;;;4936606;28;20042;-84
2022/08/01 03:00:35;;;;;;;17.75;3.88;;;17.30;99.90;;;;;;4957540;28;20074;-84
2022/08/01 03:03:03;;;;;;;12.38;3.00;;;17.30;99.90;;;;;;4952560;28;20475;-85
2022/08/01 03:05:31;;;;;;;13.55;3.30;;;17.30;99.90;;;;;;4968251;28;20047;-85
2022/08/01 03:07:59;;;;;;;11.70;3.38;;;17.30;99.90;;;;;;4937928;28;20082;-85
2022/08/01 03:10:27;;;;;;;10.90;2.70;;;17.20;99.90;;;;;;4937974;28;20516;-85
2022/08/01 03:12:55;;;;;;;11.52;3.03;;;17.20;99.90;;;;;;4969865;28;20038;-84
2022/08/01 03:15:22;;;;;;;13.18;2.75;;;17.20;99.90;;;;;;4968015;28;20612;-85
2022/08/01 03:17:51;;;;;;;11.48;2.92;;;17.20;99.90;;;;;;4936848;28;20043;-86
2022/08/01 03:20:20;;;;;;;12.32;3.00;;;17.20;99.90;;;;;;4953456;28;20050;-84
2022/08/01 03:22:48;;;;;;;12.82;2.80;;;17.10;99.90;;;;;;4954785;28;20038;-84
2022/08/01 03:25:16;;;;;;;12.23;3.08;;;17.10;99.90;;;;;;4969766;28;20391;-84
2022/08/01 03:27:45;;;;;;;11.30;2.95;;;17.00;99.90;;;;;;4938388;28;20058;-85
2022/08/01 03:30:12;;;;;;;10.32;2.55;;;17.00;99.90;;;;;;4953788;28;20518;-85
2022/08/01 03:32:38;;;;;;;12.88;3.88;;;17.00;99.90;;;;;;4953905;28;20035;-86
2022/08/01 03:35:04;;;;;;;12.57;3.08;;;16.90;99.90;;;;;;4938337;28;20395;-86
2022/08/01 03:37:40;;;;;;;9.68;2.75;;;16.90;99.90;;;;;;4954239;28;21170;-84
2022/08/01 03:40:19;;;;;;;10.60;2.80;;;16.90;99.90;;;;;;4968637;28;20117;-84
2022/08/01 03:42:48;;;;;;;9.98;2.63;;;16.90;99.90;;;;;;4954976;28;20142;-85
2022/08/01 03:45:22;;;;;;;10.27;3.20;;;16.80;99.90;;;;;;4949314;28;20046;-85
2022/08/01 03:47:52;;;;;;;12.48;2.80;;;16.80;99.90;;;;;;4970964;28;20485;-85
2022/08/01 03:50:23;;;;;;;12.75;3.00;;;16.80;99.90;;;;;;4937695;28;20039;-85
2022/08/01 03:52:50;;;;;;;13.02;2.80;;;16.80;99.90;;;;;;4954456;28;20310;-85
2022/08/01 03:55:17;;;;;;;11.07;3.17;;;16.70;99.90;;;;;;4970500;28;20050;-85
2022/08/01 03:57:45;;;;;;;12.88;3.10;;;16.70;99.90;;;;;;4970730;28;20089;-85
2022/08/01 04:00:12;;;;;;;11.20;2.80;;;16.70;99.90;;;;;;4954413;28;20500;-85
2022/08/01 04:02:38;;;;;;;12.30;3.20;;;16.70;99.90;;;;;;4953871;28;20554;-86
2022/08/01 04:05:04;;;;;;;10.88;2.80;;;16.70;99.90;;;;;;4969826;28;20039;-85
2022/08/01 04:07:32;;;;;;;11.57;3.17;;;16.70;99.90;;;;;;4954282;28;20042;-85
2022/08/01 04:09:58;;;;;;;12.77;3.38;;;16.60;99.90;;;;;;4937439;28;20579;-85
2022/08/01 04:12:23;;;;;;;12.13;2.95;;;16.60;99.90;;;;;;4936763;28;20039;-85
2022/08/01 04:14:49;;;;;;;14.13;3.00;;;16.60;99.90;;;;;;4936759;28;20058;-85
2022/08/01 04:17:16;;;;;;;13.52;3.25;;;16.60;99.90;;;;;;4954044;28;20070;-85
2022/08/01 04:19:43;;;;;;;11.65;3.08;;;16.50;99.90;;;;;;4921093;28;20488;-85
2022/08/01 04:22:11;;;;;;;14.95;3.15;;;16.50;99.90;;;;;;4933838;29;20043;-86
2022/08/01 04:24:38;;;;;;;13.10;3.38;;;16.50;99.90;;;;;;4953484;28;20062;-85
2022/08/01 04:27:09;;;;;;;14.30;3.45;;;16.60;99.90;;;;;;4969470;28;20185;-85
2022/08/01 04:29:38;;;;;;;13.07;3.20;;;16.60;99.90;;;;;;4950581;28;20416;-85
2022/08/01 04:32:06;;;;;;;12.75;3.03;;;16.60;99.90;;;;;;4952094;28;20051;-84
2022/08/01 04:34:33;;;;;;;11.30;2.78;;;16.60;99.90;;;;;;4950567;28;20114;-86
2022/08/01 04:37:00;;;;;;;15.68;3.50;;;16.60;99.90;;;;;;4949715;28;20230;-86
2022/08/01 04:39:30;;;;;;;13.77;3.40;;;16.60;99.90;;;;;;4935966;28;20105;-86
2022/08/01 04:42:03;;;;;;;14.90;3.28;;;16.60;99.90;;;;;;4950443;28;20042;-85
2022/08/01 04:44:32;;;;;;;11.43;2.85;;;16.60;99.90;;;;;;4948091;28;20070;-86
2022/08/01 04:47:04;;;;;;;16.13;3.17;;;16.70;99.90;;;;;;4949821;28;20035;-87
2022/08/01 04:49:33;;;;;;;;;;;16.60;99.90;;;;;;4937048;28;20042;-86
2022/08/01 04:52:02;;;;;;;18.40;3.45;;;16.50;99.90;;;;;;4950767;28;19921;-86
2022/08/01 04:54:29;;;;;;;14.65;3.38;;;16.60;99.90;;;;;;4965645;28;20392;-86
2022/08/01 04:56:59;;;;;;;14.10;2.95;;;16.50;99.90;;;;;;4953321;28;20045;-87
2022/08/01 04:59:42;;;;;;;19.33;3.15;;;16.50;99.90;;;;;;4949539;28;20121;-86
2022/08/01 05:02:08;;;;;;;15.77;3.60;;;16.50;99.90;;;;;;4933689;29;20126;-87
2022/08/01 05:04:34;;;;;;;16.13;3.30;;;16.50;99.90;;;;;;4952439;28;20078;-87
2022/08/01 05:07:00;;;;;;;15.23;3.35;;;16.50;99.90;;;;;;4952275;28;20121;-87
2022/08/01 05:09:27;;;;;;;12.07;3.10;;;16.50;99.90;;;;;;4952552;28;20071;-87
2022/08/01 05:11:53;;;;;;;14.65;2.88;;;16.50;99.90;;;;;;4968453;28;20082;-86
2022/08/01 05:14:18;;;;;;;15.60;3.10;;;16.50;99.90;;;;;;4951273;28;20113;-87
2022/08/01 05:16:47;;;;;;;16.40;3.17;;;16.50;99.90;;;;;;4936154;28;20058;-87
2022/08/01 05:19:13;;;;;;;13.20;2.90;;;16.50;99.90;;;;;;4935612;28;20523;-86
2022/08/01 05:21:38;;;;;;;16.67;3.90;;;16.60;99.90;;;;;;4936584;28;20050;-87
2022/08/01 05:24:05;;;;;;;13.82;3.28;;;16.60;99.90;;;;;;4934265;28;20057;-86
2022/08/01 05:26:31;;;;;;;14.07;3.33;;;16.60;99.90;;;;;;4947763;28;20086;-87
2022/08/01 05:28:56;;;;;;;15.70;4.20;;;16.60;99.90;;;;;;4947967;28;20078;-87
2022/08/01 05:31:22;;;;;;;18.52;3.72;;;16.60;99.90;;;;;;4934452;28;20047;-87
2022/08/01 05:33:48;;;;;;;14.18;3.75;;;16.60;99.90;;;;;;4936364;28;20113;-87
2022/08/01 05:36:13;;;;;;;15.10;3.38;;;16.60;99.90;;;;;;4960497;28;20113;-88
2022/08/01 05:38:40;;;;;;;15.85;3.67;;;16.60;99.90;;;;;;4972590;28;20046;-87
2022/08/01 05:41:05;;;;;;;13.82;2.95;;;16.60;99.90;;;;;;4971806;28;20030;-86
2022/08/01 05:43:31;;;;;;;15.50;3.45;;;16.60;99.90;;;;;;4956233;28;20500;-87
2022/08/01 05:45:58;;;;;;;14.48;3.28;;;16.60;99.90;;;;;;4956408;28;20046;-87
2022/08/01 05:48:23;;;;;;;13.95;3.83;;;16.60;99.90;;;;;;4956458;28;20053;-87
2022/08/01 05:50:49;;;;;;;16.70;3.53;;;16.60;99.90;;;;;;4939401;28;20051;-87
2022/08/01 05:53:15;;;;;;;13.07;3.25;;;16.60;99.90;;;;;;4940281;28;20121;-87
2022/08/01 05:55:41;;;;;;;17.17;3.72;;;16.60;99.90;;;;;;4924844;28;20050;-86
2022/08/01 05:58:06;;;;;;;13.35;3.25;;;16.70;99.90;;;;;;4940358;28;20492;-88
2022/08/01 06:00:32;;;;;;;20.08;3.88;;;16.70;99.90;;;;;;4936502;28;20039;-87
2022/08/01 06:02:58;;;;;;;19.38;3.50;;;16.70;99.90;;;;;;4944030;28;20162;-86
2022/08/01 06:05:23;;;;;;;14.32;3.08;;;16.70;99.90;;;;;;4920185;28;20043;-87
2022/08/01 06:07:49;;;;;;;14.15;3.38;;;16.70;99.90;;;;;;4937006;28;20551;-86
2022/08/01 06:10:18;;;;;;;13.13;3.25;;;16.80;99.90;;;;;;4951089;28;20097;-86
2022/08/01 06:12:43;;;;;;;14.68;3.38;;;16.80;99.90;;;;;;4969252;28;20039;-86
2022/08/01 06:15:09;;;;;;;15.90;3.30;;;16.80;99.90;;;;;;4954123;28;20035;-84
2022/08/01 06:17:35;;;;;;;15.55;3.45;;;16.90;99.90;;;;;;4938008;28;20174;-85
2022/08/01 06:20:01;;;;;;;11.68;3.10;;;16.90;99.90;;;;;;4938013;28;20474;-87
2022/08/01 06:22:27;;;;;;;17.17;3.20;;;17.80;99.90;;;;;;4949525;28;20043;-87
2022/08/01 06:24:52;;;;;;;14.05;3.38;;;16.90;99.90;;;;;;4935658;28;20051;-87
2022/08/01 06:27:18;;;;;;;16.00;3.30;;;17.00;99.90;;;;;;4939301;28;20051;-87
2022/08/01 06:29:46;;;;;;;17.83;3.20;;;17.00;99.90;;;;;;4969902;28;20126;-87
2022/08/01 06:32:12;;;;;;;13.85;3.38;;;17.00;99.90;;;;;;4952082;28;20074;-86
2022/08/01 06:34:38;;;;;;;12.98;3.10;;;17.00;99.90;;;;;;4955536;28;20081;-86
2022/08/01 06:37:03;;;;;;;12.82;3.05;;;17.00;99.90;;;;;;4955933;28;20046;-86
2022/08/01 06:39:29;;;;;;;19.70;3.45;;;17.00;99.90;;;;;;4959007;28;20053;-87
2022/08/01 06:41:55;;;;;;;12.73;3.10;;;17.10;99.90;;;;;;4937189;28;20042;-88
2022/08/01 06:44:20;;;;;;;15.55;3.75;;;17.10;99.90;;;;;;4934090;28;20077;-86
2022/08/01 06:46:46;;;;;;;14.25;3.72;;;17.10;99.90;;;;;;4966764;28;20074;-86
2022/08/01 06:49:12;;;;;;;13.20;3.17;;;17.10;99.90;;;;;;4938590;28;20460;-87
2022/08/01 06:51:37;;;;;;;14.05;3.10;;;17.20;99.90;;;;;;4971133;28;20118;-87
2022/08/01 06:54:03;;;;;;;12.40;3.17;;;17.20;99.90;;;;;;4950842;28;20035;-85
2022/08/01 06:56:29;;;;;;;14.27;3.45;;;17.20;99.90;;;;;;4938385;28;20530;-86
2022/08/01 06:59:00;;;;;;;11.77;3.20;;;17.20;99.90;;;;;;4955200;28;20042;-87
2022/08/01 07:01:29;;;;;;;16.40;3.13;;;17.30;99.90;;;;;;4943006;28;20488;-87
2022/08/01 07:03:55;;;;;;;14.10;2.95;;;17.20;99.90;;;;;;4966762;28;20047;-87
2022/08/01 07:06:25;;;;;;;13.48;3.50;;;17.30;99.90;;;;;;4937234;28;20097;-86
2022/08/01 07:08:54;;;;;;;15.73;3.03;;;17.40;99.90;;;;;;4954296;28;20113;-86
2022/08/01 07:11:21;;;;;;;10.70;2.92;;;17.40;99.90;;;;;;4952536;28;20436;-87
2022/08/01 07:13:47;;;;;;;14.13;3.00;;;17.40;99.90;;;;;;4951501;28;20058;-87
2022/08/01 07:16:13;;;;;;;12.38;2.85;;;17.50;99.90;;;;;;4932606;28;20492;-87
2022/08/01 07:18:39;;;;;;;18.10;3.10;;;17.50;99.90;;;;;;4952195;28;20043;-85
2022/08/01 07:21:05;;;;;;;12.43;2.92;;;17.50;99.90;;;;;;4966918;28;20038;-87
2022/08/01 07:23:31;;;;;;;10.70;2.75;;;17.60;99.90;;;;;;4923374;28;20488;-87
2022/08/01 07:25:57;;;;;;;14.43;3.53;;;17.70;99.90;;;;;;4950049;28;20311;-87
2022/08/01 07:28:23;;;;;;;12.30;3.17;;;17.80;99.90;;;;;;4953675;28;20093;-88
2022/08/01 07:30:49;;;;;;;14.90;3.10;;;17.80;99.90;;;;;;4949250;28;20046;-86
2022/08/01 07:33:15;;;;;;;20.50;3.25;;;17.80;99.90;;;;;;4933691;28;20169;-88
2022/08/01 07:35:40;;;;;;;17.13;3.45;;;17.80;99.90;;;;;;4937487;28;20129;-87
2022/08/01 07:38:07;;;;;;;14.30;3.28;;;17.90;99.90;;;;;;4936846;28;20039;-89
2022/08/01 07:40:33;;;;;;;15.63;3.40;;;17.90;99.90;;;;;;4968495;28;20042;-88
2022/08/01 07:42:59;;;;;;;13.27;3.00;;;18.00;99.90;;;;;;4937042;28;20166;-88
2022/08/01 07:45:26;;;;;;;17.67;3.05;;;18.00;99.90;;;;;;4936592;28;20265;-88
2022/08/01 07:47:55;;;;;;;15.65;3.20;;;18.10;99.90;;;;;;4953097;28;20035;-87
2022/08/01 07:50:24;;;;;;;15.20;3.42;;;18.10;99.90;;;;;;4946538;28;20500;-89
2022/08/01 07:53:06;;;;;;;12.20;2.67;;;18.20;99.90;;;;;;4938027;28;20121;-90
2022/08/01 07:55:40;;;;;;;11.77;2.88;;;18.50;99.90;;;;;;4967655;28;20039;-88
2022/08/01 07:58:09;;;;;;;12.27;2.80;;;19.00;99.90;;;;;;4938427;28;20039;-87
2022/08/01 08:00:38;;;;;;;13.90;3.05;;;18.60;99.90;;;;;;4968055;28;20042;-88
2022/08/01 08:03:09;;;;;;;10.20;2.83;;;18.60;99.90;;;;;;4951067;28;20093;-86
2022/08/01 08:05:37;;;;;;;14.73;3.13;;;18.60;99.90;;;;;;4952885;28;20058;-87
2022/08/01 08:08:07;;;;;;;11.50;3.20;;;18.60;99.90;;;;;;4967803;28;20042;-86
2022/08/01 08:10:34;;;;;;;14.05;2.67;;;18.50;99.90;;;;;;4952030;28;20060;-86
2022/08/01 08:13:01;;;;;;;12.57;2.60;;;18.40;99.90;;;;;;4935232;28;20082;-86
2022/08/01 08:15:27;;;;;;;13.98;2.92;;;18.30;99.90;;;;;;4951437;28;20089;-87
2022/08/01 08:17:53;;;;;;;15.77;2.67;;;18.30;99.90;;;;;;4952722;28;20039;-86
2022/08/01 08:20:24;;;;;;;11.65;2.58;;;18.20;99.90;;;;;;4937080;28;20046;-87
2022/08/01 08:22:50;;;;;;;13.88;3.00;;;18.20;99.90;;;;;;4936174;28;20058;-86
2022/08/01 08:25:16;;;;;;;13.77;2.58;;;18.40;99.90;;;;;;4939316;28;20344;-89
2022/08/01 08:27:42;;;;;;;8.40;2.15;;;18.40;99.90;;;;;;4934354;28;20313;-88
2022/08/01 08:30:08;;;;;;;9.73;2.42;;;18.40;99.90;;;;;;4932800;28;20039;-86
2022/08/01 08:32:35;;;;;;;12.95;2.97;;;18.60;99.90;;;;;;4952368;28;20121;-85
2022/08/01 08:35:01;;;;;;;12.75;2.70;;;18.80;99.90;;;;;;4950649;28;20062;-86
2022/08/01 08:37:27;;;;;;;11.75;2.60;;;19.00;99.90;;;;;;4935456;28;20039;-86
2022/08/01 08:39:52;;;;;;;12.77;2.88;;;19.00;99.90;;;;;;4934552;28;20047;-86
2022/08/01 08:42:18;;;;;;;16.20;3.03;;;18.80;99.90;;;;;;4935383;28;20101;-85
2022/08/01 08:44:44;;;;;;;11.95;2.63;;;18.90;99.90;;;;;;4935283;28;20035;-86
2022/08/01 08:47:15;;;;;;;10.50;2.33;;;18.90;99.90;;;;;;4968364;28;20057;-86
2022/08/01 08:49:43;;;;;;;12.48;2.63;;;18.90;99.90;;;;;;4950102;28;20034;-87
2022/08/01 08:52:10;;;;;;;10.93;2.40;;;18.70;99.90;;;;;;4964811;28;20061;-87
2022/08/01 08:54:38;;;;;;;10.68;2.58;;;18.60;99.90;;;;;;4934370;28;20039;-86
2022/08/01 08:57:04;;;;;;;13.75;2.40;;;18.60;99.90;;;;;;4949097;28;20070;-86
2022/08/01 08:59:31;;;;;;;9.50;2.47;;;18.50;99.90;;;;;;4947728;28;20572;-86
2022/08/01 09:01:58;;;;;;;9.35;2.20;;;18.60;99.90;;;;;;4965850;28;20049;-86
2022/08/01 09:04:24;;;;;;;11.35;2.42;;;18.80;99.90;;;;;;4965024;28;20113;-87
2022/08/01 09:06:51;;;;;;;9.32;2.40;;;19.00;99.90;;;;;;4932480;28;20416;-87
2022/08/01 09:09:17;;;;;;;13.70;2.50;;;19.20;99.90;;;;;;4966573;28;20065;-87
2022/08/01 09:11:42;;;;;;;10.50;1.95;;;19.30;99.90;;;;;;4950592;28;20081;-85
2022/08/01 09:14:14;;;;;;;11.18;2.53;;;19.40;99.90;;;;;;4935611;28;20045;-86
2022/08/01 09:16:42;;;;;;;9.23;2.45;;;19.60;99.90;;;;;;4949592;28;20516;-87
2022/08/01 09:19:13;;;;;;;10.52;2.28;;;19.60;99.90;;;;;;4950808;28;20038;-86
2022/08/01 09:21:40;;;;;;;12.40;2.50;;;19.70;99.90;;;;;;4961790;28;21093;-86
2022/08/01 09:24:15;;;;;;;10.98;2.25;;;19.80;99.90;;;;;;4934659;28;20039;-88
2022/08/01 09:26:41;;;;;;;12.30;2.65;;;19.70;99.90;;;;;;4965455;28;20117;-86
2022/08/01 09:29:18;;;;;;;10.02;2.40;;;19.60;99.90;;;;;;4951272;28;20047;-86
2022/08/01 09:31:44;;;;;;;10.30;2.10;;;19.50;99.90;;;;;;4950125;28;20102;-87
2022/08/01 09:34:10;;;;;;;10.20;2.35;;;19.60;99.90;;;;;;4934818;28;20043;-87
2022/08/01 09:36:56;;;;;;;10.43;2.00;;;19.80;99.90;;;;;;4951034;28;20154;-87
2022/08/01 09:39:54;;;;;;;9.50;2.42;;;20.00;99.90;;;;;;4965631;28;20085;-86
2022/08/01 09:42:23;;;;;;;10.63;2.10;;;19.80;99.90;;;;;;4936654;28;20050;-85
2022/08/01 09:44:49;;;;;;;11.73;2.60;;;19.70;99.90;;;;;;4967614;28;20045;-86
2022/08/01 09:47:16;;;;;;;12.02;2.53;;;19.60;99.90;;;;;;4950575;28;20047;-86
2022/08/01 09:49:43;;;;;;;7.93;2.08;;;19.70;99.90;;;;;;4949918;28;20043;-88
2022/08/01 09:52:19;;;;;;;11.68;2.50;;;19.80;99.90;;;;;;4951629;28;20047;-86
2022/08/01 09:54:56;;;;;;;8.88;2.25;;;20.00;99.90;;;;;;4963979;28;20062;-86
2022/08/01 09:57:22;;;;;;;12.82;2.45;;;20.00;99.90;;;;;;4949911;28;20062;-87
2022/08/01 09:59:51;;;;;;;9.98;2.22;;;20.20;99.90;;;;;;4936331;28;20834;-87
2022/08/01 10:02:34;;;;;;;11.60;2.08;;;20.40;99.90;;;;;;4949433;28;20111;-87
2022/08/01 10:05:03;;;;;;;9.15;2.08;;;20.40;99.90;;;;;;4948047;28;20519;-87
2022/08/01 10:07:28;;;;;;;12.45;2.10;;;20.50;99.90;;;;;;4951536;28;20051;-87
2022/08/01 10:09:54;;;;;;;8.18;1.88;;;20.30;99.90;;;;;;4965205;28;20107;-85
2022/08/01 10:12:23;;;;;;;10.23;2.28;;;20.40;99.90;;;;;;4964944;28;20047;-87
2022/08/01 10:14:51;;;;;;;9.75;2.00;;;20.50;99.90;;;;;;4952406;28;20051;-85
2022/08/01 10:17:19;;;;;;;11.07;2.00;;;20.60;99.90;;;;;;4968983;28;20058;-89
2022/08/01 10:19:46;;;;;;;9.65;1.98;;;20.50;99.90;;;;;;4966758;28;20041;-87
2022/08/01 10:22:16;;;;;;;7.70;1.90;;;20.50;99.90;;;;;;4938500;28;20099;-87
2022/08/01 10:24:45;;;;;;;9.73;1.90;;;20.60;99.90;;;;;;4971227;28;20082;-87
2022/08/01 10:27:12;;;;;;;15.05;2.45;;;20.70;99.90;;;;;;4955921;28;20043;-87
2022/08/01 10:29:46;;;;;;;11.48;2.40;;;20.70;99.90;;;;;;4969600;28;20047;-86
2022/08/01 10:32:12;;;;;;;11.00;1.92;;;21.30;99.90;;;;;;4966413;28;20038;-88
2022/08/01 10:34:38;;;;;;;13.57;2.88;;;20.80;99.90;;;;;;4946846;28;20502;-88
2022/08/01 10:37:05;;;;;;;10.30;2.25;;;20.80;99.90;;;;;;4951022;28;20733;-88
2022/08/01 10:39:32;;;;;;;10.00;1.80;;;20.80;99.90;;;;;;4954304;28;20049;-88
2022/08/01 10:41:58;;;;;;;8.60;1.80;;;20.70;99.90;;;;;;4954403;28;20105;-88
2022/08/01 10:44:27;;;;;;;10.05;2.10;;;20.60;99.90;;;;;;4954015;28;20074;-89
2022/08/01 10:47:01;;;;;;;11.68;2.47;;;20.50;99.90;;;;;;4952127;28;20057;-88
2022/08/01 10:49:31;;;;;;;8.55;1.75;;;20.40;99.90;;;;;;4968941;28;20077;-87
2022/08/01 10:51:57;;;;;;;10.75;1.90;;;20.50;99.90;;;;;;4955334;28;20031;-87
2022/08/01 10:54:26;;;;;;;8.32;1.88;;;20.60;99.90;;;;;;4939663;28;20090;-88
2022/08/01 10:56:52;;;;;;;8.98;1.95;;;20.50;99.90;;;;;;4940708;28;20042;-87
2022/08/01 10:59:27;;;;;;;9.73;1.98;;;20.50;99.90;;;;;;4984127;28;20215;-89
2022/08/01 11:02:03;;;;;;;9.40;2.10;;;20.60;99.90;;;;;;4972419;28;20035;-87
2022/08/01 11:04:44;;;;;;;8.90;1.98;;;20.70;99.90;;;;;;4951601;28;20046;-88
2022/08/01 11:07:20;;;;;;;10.45;2.10;;;20.60;99.90;;;;;;4966247;28;20415;-88
2022/08/01 11:09:47;;;;;;;6.88;1.67;;;20.40;99.90;;;;;;4964237;28;20049;-89
2022/08/01 11:12:15;;;;;;;10.45;1.75;;;20.40;99.90;;;;;;4935979;28;20142;-90
2022/08/01 11:14:59;;;;;;;11.13;2.13;;;20.60;99.90;;;;;;4967211;28;20057;-88
2022/08/01 11:17:34;;;;;;;10.93;2.30;;;20.70;99.90;;;;;;4982698;28;20047;-88
2022/08/01 11:20:32;;;;;;;11.20;2.20;;;20.50;99.90;;;;;;4969337;28;20117;-89
2022/08/01 11:23:01;;;;;;;9.00;1.85;;;20.40;99.90;;;;;;4967318;28;20057;-89
2022/08/01 11:25:37;;;;;;;9.13;2.00;;;20.40;99.90;;;;;;4973263;28;20497;-89
2022/08/01 11:28:17;;;;;;;7.10;1.52;;;20.40;99.90;;;;;;4962874;28;20464;-87
2022/08/01 11:30:47;;;;;;;10.55;2.10;;;20.20;99.90;;;;;;4948070;28;20049;-87
2022/08/01 11:33:14;;;;;;;9.90;2.00;;;20.30;99.90;;;;;;4935228;28;20072;-87
2022/08/01 11:36:11;;;;;;;8.75;1.90;;;20.30;99.90;;;;;;4967927;28;20042;-88
2022/08/01 11:38:39;;;;;;;7.32;1.77;;;20.40;99.90;;;;;;4966036;28;20066;-89
2022/08/01 11:41:21;;;;;;;8.57;2.03;;;20.50;99.90;;;;;;4966822;28;20117;-89
2022/08/01 11:44:11;;;;;;;10.23;1.90;;;20.50;99.90;;;;;;4950365;28;20400;-87
2022/08/01 11:47:01;;;;;;;8.00;1.85;;;20.50;99.90;;;;;;4951627;28;20635;-87
2022/08/01 11:49:45;;;;;;;7.97;1.88;;;20.40;99.90;;;;;;4984383;28;20491;-89
2022/08/01 11:52:14;;;;;;;8.30;1.63;;;20.50;99.90;;;;;;4952131;28;20030;-88
2022/08/01 11:54:43;;;;;;;9.75;1.88;;;20.70;99.90;;;;;;4949702;28;20042;-86
2022/08/01 11:57:12;;;;;;;7.40;1.85;;;20.80;99.90;;;;;;4967706;28;20042;-87
2022/08/01 11:59:45;;;;;;;8.38;1.90;;;20.90;99.90;;;;;;4949641;28;20117;-87
2022/08/01 12:02:27;;;;;;;10.40;2.15;;;20.90;99.90;;;;;;4947362;28;20035;-87
2022/08/01 12:04:59;;;;;;;8.48;1.70;;;21.10;99.90;;;;;;4965279;28;20038;-86
2022/08/01 12:07:27;;;;;;;7.77;1.90;;;21.10;99.90;;;;;;4951429;28;20046;-86
2022/08/01 12:09:57;;;;;;;8.07;1.70;;;21.20;99.90;;;;;;4952084;28;20046;-86
2022/08/01 12:12:23;;;;;;;6.80;1.98;;;21.30;99.90;;;;;;4950558;28;20046;-86
2022/08/01 12:14:58;;;;;;;6.07;1.60;;;21.30;99.90;;;;;;4948715;28;20136;-87
2022/08/01 12:17:33;;;;;;;5.63;1.65;;;21.40;99.90;;;;;;4952026;28;20039;-87
2022/08/01 12:19:59;;;;;;;7.93;1.95;;;21.30;99.90;;;;;;4949837;28;20043;-87
2022/08/01 12:22:25;;;;;;;6.97;1.55;;;21.20;99.90;;;;;;4949600;28;20046;-86
2022/08/01 12:24:51;;;;;;;7.63;1.70;;;21.30;99.90;;;;;;4955348;28;20093;-87
2022/08/01 12:27:25;;;;;;;8.48;1.80;;;21.20;99.90;;;;;;4933582;28;20074;-86
2022/08/01 12:29:51;;;;;;;6.55;1.70;;;21.10;99.90;;;;;;4951402;28;20492;-87
2022/08/01 12:32:38;;;;;;;7.38;1.60;;;21.10;99.90;;;;;;4934320;28;20050;-86
2022/08/01 12:35:13;;;;;;;8.10;2.00;;;21.20;99.90;;;;;;4936277;28;20047;-86
2022/08/01 12:37:44;;;;;;;10.60;2.20;;;21.20;99.90;;;;;;4968193;28;20057;-86
2022/08/01 12:40:14;;;;;;;7.97;1.60;;;21.20;99.90;;;;;;4951881;28;20526;-87
2022/08/01 12:42:42;;;;;;;7.22;1.75;;;21.30;99.90;;;;;;4964513;28;20377;-89
2022/08/01 12:45:09;;;;;;;6.25;1.52;;;21.40;99.90;;;;;;4966145;28;20038;-87
2022/08/01 12:47:38;;;;;;;9.63;1.70;;;21.30;99.90;;;;;;4937031;28;20039;-88
2022/08/01 12:50:07;;;;;;;10.48;2.00;;;21.30;99.90;;;;;;4950704;28;20084;-87